Terminal Aerodrome Forecast
Issued by NWS Sioux Falls, SD

Home | Current Version | Previous Version | Text Only | Print | Product List | Glossary On
Versions: 1 2 3 4 5 6 7 8 9 10 11 12 13 14 15 16 17 18 19 20
000
FTUS43 KFSD 190526
TAFSUX
TAF
KSUX 190526Z 1906/2006 33005KT P6SM BKN110
     FM190900 36013KT P6SM -SHRA SCT060 BKN080
     FM191300 02010G16KT P6SM -SHRA OVC050
     FM192100 03013G21KT 6SM SHRA OVC040=

USA.gov is the U.S. government's official web portal to all federal, state and local government web resources and services.